createdAt,value
2019-05-20T00:00:40.461Z,13.90
2019-05-20T00:03:08.518Z,13.90
2019-05-20T00:05:36.649Z,13.90
2019-05-20T00:08:04.655Z,14.10
2019-05-20T00:10:33.474Z,14.20
2019-05-20T00:13:01.534Z,14.20
2019-05-20T00:15:29.565Z,14.10
2019-05-20T00:17:57.594Z,14.20
2019-05-20T00:20:25.736Z,14.00
2019-05-20T00:22:53.761Z,13.70
2019-05-20T00:25:21.878Z,13.70
2019-05-20T00:27:49.901Z,13.80
2019-05-20T00:30:17.944Z,13.70
2019-05-20T00:32:45.977Z,13.80
2019-05-20T00:35:14.870Z,13.80
2019-05-20T00:37:42.921Z,13.80
2019-05-20T00:40:11.161Z,13.80
2019-05-20T00:42:39.097Z,13.80
2019-05-20T00:45:07.165Z,13.80
2019-05-20T00:47:35.227Z,13.70
2019-05-20T00:50:04.038Z,13.70
2019-05-20T00:52:32.066Z,13.70
2019-05-20T00:55:00.150Z,13.70
2019-05-20T00:57:28.185Z,13.70
2019-05-20T00:59:56.293Z,13.70
2019-05-20T01:02:24.356Z,13.70
2019-05-20T01:04:53.142Z,13.60
2019-05-20T01:07:21.941Z,13.60
2019-05-20T01:09:50.749Z,13.50
2019-05-20T01:12:18.802Z,13.50
2019-05-20T01:14:47.726Z,13.60
2019-05-20T01:17:15.753Z,13.60
2019-05-20T01:19:43.810Z,13.70
2019-05-20T01:22:12.664Z,13.70
2019-05-20T01:24:40.705Z,13.70
2019-05-20T01:27:08.739Z,13.50
2019-05-20T01:29:38.367Z,13.50
2019-05-20T01:32:06.445Z,13.50
2019-05-20T01:34:34.494Z,13.40
2019-05-20T01:37:03.397Z,13.50
2019-05-20T01:39:31.509Z,13.40
2019-05-20T01:41:59.521Z,13.40
2019-05-20T01:44:28.658Z,13.30
2019-05-20T01:46:56.698Z,13.30
2019-05-20T01:49:25.491Z,13.20
2019-05-20T01:51:53.529Z,13.20
2019-05-20T01:54:21.632Z,13.30
2019-05-20T01:56:49.675Z,13.30
2019-05-20T01:59:18.486Z,13.20
2019-05-20T02:01:46.565Z,13.20
2019-05-20T02:04:14.622Z,13.10
2019-05-20T02:06:42.676Z,13.10
2019-05-20T02:09:11.482Z,12.90
2019-05-20T02:11:40.394Z,13.00
2019-05-20T02:14:08.450Z,13.00
2019-05-20T02:16:36.517Z,13.10
2019-05-20T02:19:04.586Z,13.20
2019-05-20T02:21:32.651Z,13.20
2019-05-20T02:24:01.473Z,13.00
2019-05-20T02:26:29.513Z,13.00
2019-05-20T02:28:57.585Z,12.90
2019-05-20T02:31:25.646Z,12.80
2019-05-20T02:33:54.454Z,12.80
2019-05-20T02:36:22.539Z,12.70
2019-05-20T02:38:50.594Z,12.70
2019-05-20T02:41:19.374Z,12.80
2019-05-20T02:43:47.446Z,12.80
2019-05-20T02:46:15.539Z,12.90
2019-05-20T02:48:43.592Z,12.80
2019-05-20T02:51:11.675Z,13.00
2019-05-20T02:53:39.738Z,13.10
2019-05-20T02:56:07.785Z,13.10
2019-05-20T02:58:36.715Z,12.90
2019-05-20T03:01:04.776Z,12.90
2019-05-20T03:03:32.823Z,13.00
2019-05-20T03:06:01.640Z,13.00
2019-05-20T03:08:29.671Z,13.00
2019-05-20T03:10:57.718Z,13.00
2019-05-20T03:13:27.395Z,13.10
2019-05-20T03:15:55.450Z,13.10
2019-05-20T03:18:23.502Z,13.00
2019-05-20T03:20:51.564Z,13.10
2019-05-20T03:23:20.412Z,13.00
2019-05-20T03:25:48.445Z,13.00
2019-05-20T03:28:16.612Z,13.20
2019-05-20T03:30:45.423Z,13.20
2019-05-20T03:33:13.586Z,13.20
2019-05-20T03:35:41.659Z,13.00
2019-05-20T03:38:09.705Z,13.10
2019-05-20T03:40:37.742Z,13.20
2019-05-20T03:43:05.877Z,13.10
2019-05-20T03:45:33.942Z,13.20
2019-05-20T03:48:01.985Z,13.10
2019-05-20T03:50:30.069Z,12.90
2019-05-20T03:52:58.163Z,12.90
2019-05-20T03:55:26.299Z,13.10
2019-05-20T03:57:54.374Z,13.10
2019-05-20T04:03:24.645Z,13.00
2019-05-20T04:05:53.403Z,13.00
2019-05-20T04:08:21.492Z,13.00
2019-05-20T04:10:49.545Z,13.00
2019-05-20T04:13:17.608Z,13.00
2019-05-20T04:15:45.611Z,13.00
2019-05-20T04:18:13.778Z,13.20
2019-05-20T04:20:42.034Z,13.10
2019-05-20T04:23:10.090Z,13.10
2019-05-20T04:25:38.129Z,13.10
2019-05-20T04:28:06.173Z,13.20
2019-05-20T04:30:34.309Z,13.20
2019-05-20T04:33:02.384Z,13.20
2019-05-20T04:35:30.463Z,13.30
2019-05-20T04:37:58.637Z,13.30
2019-05-20T04:40:26.695Z,13.20
2019-05-20T04:42:54.795Z,13.30
2019-05-20T04:45:22.819Z,13.30
2019-05-20T04:47:51.643Z,13.40
2019-05-20T04:50:19.707Z,13.30
2019-05-20T04:52:47.761Z,13.40
2019-05-20T04:55:15.872Z,13.30
2019-05-20T04:57:43.895Z,13.10
2019-05-20T05:00:11.970Z,13.10
2019-05-20T05:02:43.372Z,13.20
2019-05-20T05:05:08.039Z,13.20
2019-05-20T05:07:36.081Z,13.10
2019-05-20T05:10:04.958Z,13.10
2019-05-20T05:12:33.834Z,13.00
2019-05-20T05:15:02.112Z,13.00
2019-05-20T05:17:29.985Z,13.10
2019-05-20T05:19:58.914Z,13.20
2019-05-20T05:22:26.982Z,13.10
2019-05-20T05:24:55.065Z,13.40
2019-05-20T05:27:23.099Z,13.50
2019-05-20T05:29:51.118Z,13.50
2019-05-20T05:32:19.182Z,13.40
2019-05-20T05:34:47.215Z,13.30
2019-05-20T05:37:15.309Z,13.30
2019-05-20T05:39:43.466Z,13.40
2019-05-20T05:42:11.526Z,13.30
2019-05-20T05:44:39.841Z,13.30
2019-05-20T05:47:07.985Z,13.30
2019-05-20T05:49:36.034Z,13.30
2019-05-20T05:52:04.978Z,13.20
2019-05-20T05:54:33.106Z,13.20
2019-05-20T05:57:01.153Z,13.20
2019-05-20T05:59:29.967Z,13.30
2019-05-20T06:01:58.045Z,13.30
2019-05-20T06:04:27.450Z,13.20
2019-05-20T06:06:55.515Z,13.20
2019-05-20T06:09:23.590Z,13.20
2019-05-20T06:11:51.649Z,13.30
2019-05-20T06:14:19.734Z,13.20
2019-05-20T06:16:48.506Z,13.50
2019-05-20T06:19:16.638Z,13.50
2019-05-20T06:21:44.639Z,13.60
2019-05-20T06:24:13.475Z,13.50
2019-05-20T06:26:41.609Z,13.50
2019-05-20T06:29:09.705Z,13.60
2019-05-20T06:31:37.741Z,13.70
2019-05-20T06:34:05.806Z,13.80
2019-05-20T06:36:34.637Z,13.70
2019-05-20T06:39:12.162Z,13.70
2019-05-20T06:41:40.282Z,13.70
2019-05-20T06:44:08.341Z,13.70
2019-05-20T06:46:36.433Z,13.80
2019-05-20T06:49:05.313Z,13.70
2019-05-20T06:51:33.361Z,13.60
2019-05-20T06:54:01.371Z,13.60
2019-05-20T06:56:29.547Z,13.50
2019-05-20T06:58:58.306Z,13.80
2019-05-20T07:01:26.354Z,13.80
2019-05-20T07:03:55.182Z,14.10
2019-05-20T07:06:23.261Z,14.10
2019-05-20T07:08:51.309Z,14.10
2019-05-20T07:11:19.357Z,14.20
2019-05-20T07:13:48.176Z,14.10
2019-05-20T07:16:16.182Z,14.10
2019-05-20T07:18:44.218Z,14.20
2019-05-20T07:21:12.265Z,14.20
2019-05-20T07:23:40.334Z,14.30
2019-05-20T07:26:08.443Z,14.10
2019-05-20T07:28:36.493Z,13.90
2019-05-20T07:31:04.569Z,13.80
2019-05-20T07:33:32.622Z,13.70
2019-05-20T07:36:00.716Z,13.70
2019-05-20T07:38:28.778Z,13.60
2019-05-20T07:40:56.816Z,13.80
2019-05-20T07:43:24.907Z,13.90
2019-05-20T07:45:52.979Z,14.00
2019-05-20T07:48:21.766Z,14.00
2019-05-20T07:50:49.833Z,14.00
2019-05-20T07:53:17.873Z,14.00
2019-05-20T07:55:54.283Z,14.10
2019-05-20T07:58:22.338Z,14.00
2019-05-20T08:00:50.434Z,14.10
2019-05-20T08:03:18.482Z,14.20
2019-05-20T08:05:46.551Z,14.10
2019-05-20T08:08:14.660Z,14.20
2019-05-20T08:10:42.798Z,14.00
2019-05-20T08:13:10.880Z,13.90
2019-05-20T08:15:38.926Z,14.00
2019-05-20T08:18:07.007Z,13.90
2019-05-20T08:20:35.797Z,14.00
2019-05-20T08:23:03.875Z,13.90
2019-05-20T08:25:31.922Z,13.90
2019-05-20T08:28:00.834Z,14.00
2019-05-20T08:30:28.899Z,14.00
2019-05-20T08:32:56.957Z,14.20
2019-05-20T08:35:25.025Z,14.20
2019-05-20T08:37:53.115Z,14.20
2019-05-20T08:40:21.156Z,14.10
2019-05-20T08:42:49.965Z,13.90
2019-05-20T08:45:18.006Z,13.90
2019-05-20T08:47:46.846Z,13.90
2019-05-20T08:50:16.372Z,13.90
2019-05-20T08:52:43.092Z,13.80
2019-05-20T08:55:11.166Z,13.70
2019-05-20T08:57:39.224Z,13.90
2019-05-20T09:00:07.297Z,14.00
2019-05-20T09:02:35.993Z,14.10
2019-05-20T09:05:04.064Z,14.20
2019-05-20T09:07:32.105Z,14.20
2019-05-20T09:10:00.179Z,14.00
2019-05-20T09:12:29.085Z,14.20
2019-05-20T09:14:57.116Z,14.10
2019-05-20T09:17:26.028Z,14.20
2019-05-20T09:19:54.103Z,14.20
2019-05-20T09:22:22.179Z,14.30
2019-05-20T09:24:50.899Z,14.30
2019-05-20T09:27:18.744Z,14.20
2019-05-20T09:29:47.331Z,14.20
2019-05-20T09:32:15.393Z,14.20
2019-05-20T09:34:43.430Z,14.20
2019-05-20T09:37:11.527Z,14.30
2019-05-20T09:39:39.587Z,14.40
2019-05-20T09:42:07.666Z,14.50
2019-05-20T09:44:35.743Z,14.60
2019-05-20T09:47:04.619Z,14.80
2019-05-20T09:49:32.719Z,14.80
2019-05-20T09:52:00.792Z,14.90
2019-05-20T09:54:28.821Z,14.90
2019-05-20T09:56:56.890Z,15.00
2019-05-20T09:59:25.087Z,15.00
2019-05-20T10:01:53.860Z,15.00
2019-05-20T10:04:21.916Z,15.00
2019-05-20T10:06:49.959Z,14.90
2019-05-20T10:09:18.086Z,14.90
2019-05-20T10:11:46.126Z,15.00
2019-05-20T10:14:14.940Z,14.90
2019-05-20T10:16:43.019Z,14.90
2019-05-20T10:19:11.090Z,15.00
2019-05-20T10:21:39.162Z,14.80
2019-05-20T10:24:07.177Z,14.80
2019-05-20T10:26:36.021Z,15.10
2019-05-20T10:29:04.086Z,15.00
2019-05-20T10:31:32.148Z,14.90
2019-05-20T10:34:00.937Z,15.00
2019-05-20T10:36:29.709Z,15.00
2019-05-20T10:38:59.550Z,14.90
2019-05-20T10:41:29.484Z,14.90
2019-05-20T10:43:54.889Z,14.90
2019-05-20T10:46:22.927Z,14.90
2019-05-20T10:48:50.991Z,15.00
2019-05-20T10:51:19.032Z,15.00
2019-05-20T10:53:47.157Z,15.10
2019-05-20T10:56:15.683Z,15.40
2019-05-20T10:58:44.234Z,15.50
2019-05-20T11:01:12.579Z,15.50
2019-05-20T11:03:40.659Z,15.50
2019-05-20T11:06:08.726Z,15.50
2019-05-20T11:08:36.777Z,15.60
2019-05-20T11:11:04.875Z,15.50
2019-05-20T11:13:32.894Z,15.30
2019-05-20T11:16:01.823Z,15.60
2019-05-20T11:18:29.897Z,15.60
2019-05-20T11:20:58.678Z,15.20
2019-05-20T11:23:26.750Z,15.20
2019-05-20T11:25:54.817Z,15.20
2019-05-20T11:28:22.885Z,15.20
2019-05-20T11:30:50.934Z,15.40
2019-05-20T11:33:19.742Z,15.40
2019-05-20T11:35:47.826Z,15.40
2019-05-20T11:38:16.601Z,15.20
2019-05-20T11:40:44.681Z,15.20
2019-05-20T11:43:12.730Z,15.10
2019-05-20T11:45:40.816Z,15.30
2019-05-20T11:48:08.895Z,15.30
2019-05-20T11:50:36.950Z,15.20
2019-05-20T11:53:05.062Z,15.20
2019-05-20T11:55:33.105Z,15.20
2019-05-20T11:58:14.392Z,15.20
2019-05-20T12:00:29.250Z,15.20
2019-05-20T12:02:57.307Z,15.00
2019-05-20T12:05:25.384Z,14.60
2019-05-20T12:07:53.418Z,14.30
2019-05-20T12:10:22.226Z,14.20
2019-05-20T12:12:50.370Z,14.20
2019-05-20T12:15:18.459Z,14.10
2019-05-20T12:17:47.252Z,13.40
2019-05-20T12:20:16.144Z,12.80
2019-05-20T12:22:44.213Z,12.80
2019-05-20T12:25:12.282Z,12.70
2019-05-20T12:27:41.095Z,12.30
2019-05-20T12:30:09.164Z,12.30
2019-05-20T12:32:37.225Z,12.40
2019-05-20T12:35:05.286Z,12.40
2019-05-20T12:37:33.354Z,12.50
2019-05-20T12:40:06.995Z,12.60
2019-05-20T12:42:29.502Z,12.70
2019-05-20T12:44:58.281Z,13.00
2019-05-20T12:47:26.393Z,13.00
2019-05-20T12:49:54.429Z,13.10
2019-05-20T12:52:22.498Z,13.10
2019-05-20T12:55:06.172Z,13.10
2019-05-20T12:57:19.558Z,13.10
2019-05-20T12:59:48.346Z,13.10
2019-05-20T13:02:17.442Z,13.10
2019-05-20T13:04:45.215Z,13.30
2019-05-20T13:07:13.314Z,13.30
2019-05-20T13:09:41.442Z,13.40
2019-05-20T13:12:09.635Z,13.50
2019-05-20T13:14:37.598Z,13.70
2019-05-20T13:17:05.638Z,13.70
2019-05-20T13:19:33.730Z,13.60
2019-05-20T13:22:01.778Z,13.70
2019-05-20T13:24:30.691Z,13.60
2019-05-20T13:26:58.833Z,13.50
2019-05-20T13:29:26.940Z,13.60
2019-05-20T13:31:55.001Z,13.70
2019-05-20T13:34:23.062Z,13.70
2019-05-20T13:36:51.971Z,13.90
2019-05-20T13:39:20.047Z,13.90
2019-05-20T13:41:48.110Z,13.90
2019-05-20T13:44:16.189Z,13.80
2019-05-20T13:46:44.246Z,13.80
2019-05-20T13:49:12.314Z,13.90
2019-05-20T13:51:40.381Z,14.00
2019-05-20T13:54:08.582Z,13.90
2019-05-20T13:56:37.370Z,13.60
2019-05-20T13:59:05.426Z,13.60
2019-05-20T14:01:33.473Z,13.80
2019-05-20T14:04:02.386Z,13.80
2019-05-20T14:06:30.535Z,13.80
2019-05-20T14:08:58.557Z,13.80
2019-05-20T14:11:34.562Z,13.80
2019-05-20T14:13:54.767Z,13.70
2019-05-20T14:16:22.835Z,13.60
2019-05-20T14:18:50.858Z,13.70
2019-05-20T14:21:18.876Z,13.70
2019-05-20T14:23:47.787Z,13.60
2019-05-20T14:26:15.814Z,13.60
2019-05-20T14:28:44.641Z,13.60
2019-05-20T14:31:12.681Z,13.60
2019-05-20T14:33:41.473Z,13.60
2019-05-20T14:36:10.355Z,13.60
2019-05-20T14:38:39.275Z,13.50
2019-05-20T14:41:21.178Z,13.50
2019-05-20T14:43:35.420Z,13.60
2019-05-20T14:46:03.439Z,13.60
2019-05-20T14:48:31.542Z,13.60
2019-05-20T14:50:59.578Z,13.50
2019-05-20T14:53:27.585Z,13.40
2019-05-20T14:55:55.622Z,13.60
2019-05-20T14:58:23.633Z,13.70
2019-05-20T15:00:51.691Z,13.60
2019-05-20T15:03:20.573Z,13.60
2019-05-20T15:05:49.379Z,13.60
2019-05-20T15:08:16.791Z,13.60
2019-05-20T15:10:44.887Z,13.50
2019-05-20T15:13:12.930Z,13.50
2019-05-20T15:15:41.034Z,13.50
2019-05-20T15:18:09.154Z,13.40
2019-05-20T15:20:37.273Z,13.50
2019-05-20T15:23:05.334Z,13.50
2019-05-20T15:25:34.188Z,13.50
2019-05-20T15:28:02.226Z,13.50
2019-05-20T15:30:30.273Z,13.50
2019-05-20T15:32:58.401Z,13.50
2019-05-20T15:35:26.454Z,13.40
2019-05-20T15:37:54.691Z,13.50
2019-05-20T15:40:24.294Z,13.50
2019-05-20T15:42:50.859Z,13.40
2019-05-20T15:45:18.877Z,13.40
2019-05-20T15:47:47.848Z,13.30
2019-05-20T15:50:15.961Z,13.30
2019-05-20T15:52:44.106Z,13.30
2019-05-20T15:55:12.218Z,13.20
2019-05-20T15:57:40.373Z,13.30
2019-05-20T16:00:08.418Z,13.30
2019-05-20T16:02:36.523Z,13.30
2019-05-20T16:05:04.574Z,13.20
2019-05-20T16:07:33.432Z,13.10
2019-05-20T16:10:01.467Z,13.10
2019-05-20T16:12:34.024Z,13.10
2019-05-20T16:14:58.525Z,13.10
2019-05-20T16:17:26.709Z,13.20
2019-05-20T16:19:54.798Z,13.20
2019-05-20T16:22:24.241Z,13.10
2019-05-20T16:24:53.156Z,13.10
2019-05-20T16:27:21.297Z,13.20
2019-05-20T16:30:05.360Z,13.10
2019-05-20T16:32:18.223Z,13.10
2019-05-20T16:34:46.253Z,13.20
2019-05-20T16:37:14.326Z,13.20
2019-05-20T16:39:43.114Z,13.10
2019-05-20T16:42:11.171Z,13.10
2019-05-20T16:44:39.975Z,13.20
2019-05-20T16:47:08.037Z,13.10
2019-05-20T16:49:36.112Z,13.10
2019-05-20T16:52:04.185Z,13.00
2019-05-20T16:54:32.266Z,13.00
2019-05-20T16:57:00.301Z,12.90
2019-05-20T16:59:28.418Z,13.00
2019-05-20T17:01:56.583Z,12.90
2019-05-20T17:04:24.667Z,12.90
2019-05-20T17:06:52.713Z,12.90
2019-05-20T17:09:20.777Z,12.90
2019-05-20T17:11:49.562Z,12.90
2019-05-20T17:14:17.652Z,12.90
2019-05-20T17:16:45.686Z,12.90
2019-05-20T17:19:14.534Z,12.90
2019-05-20T17:21:42.606Z,12.90
2019-05-20T17:24:10.663Z,12.90
2019-05-20T17:26:38.802Z,12.90
2019-05-20T17:29:06.855Z,12.90
2019-05-20T17:31:34.946Z,12.90
2019-05-20T17:34:03.021Z,12.90
2019-05-20T17:36:31.098Z,12.80
2019-05-20T17:38:59.278Z,12.90
2019-05-20T17:41:28.100Z,12.90
2019-05-20T17:43:56.170Z,12.90
2019-05-20T17:46:24.289Z,12.90
2019-05-20T17:48:52.334Z,12.80
2019-05-20T17:51:21.137Z,12.90
2019-05-20T17:53:50.755Z,12.90
2019-05-20T17:56:18.822Z,12.90
2019-05-20T17:58:46.898Z,12.90
2019-05-20T18:01:16.204Z,12.90
2019-05-20T18:03:43.159Z,12.90
2019-05-20T18:06:11.181Z,12.90
2019-05-20T18:08:39.227Z,12.90
2019-05-20T18:11:07.261Z,12.90
2019-05-20T18:13:35.306Z,12.80
2019-05-20T18:16:04.206Z,12.80
2019-05-20T18:18:32.281Z,12.80
2019-05-20T18:21:00.321Z,12.80
2019-05-20T18:23:28.462Z,12.90
2019-05-20T18:25:56.646Z,12.90
2019-05-20T18:28:24.772Z,12.90
2019-05-20T18:30:52.858Z,12.90
2019-05-20T18:33:20.893Z,12.90
2019-05-20T18:35:49.853Z,12.90
2019-05-20T18:38:17.881Z,12.90
2019-05-20T18:40:45.944Z,12.80
2019-05-20T18:43:14.778Z,12.80
2019-05-20T18:45:42.837Z,12.80
2019-05-20T18:48:10.965Z,12.80
2019-05-20T18:50:39.045Z,12.70
2019-05-20T18:53:07.123Z,12.70
2019-05-20T18:55:35.221Z,12.60
2019-05-20T18:58:03.396Z,12.50
2019-05-20T19:00:32.245Z,12.40
2019-05-20T19:03:00.289Z,12.40
2019-05-20T19:05:28.301Z,12.30
2019-05-20T19:07:56.345Z,12.40
2019-05-20T19:10:24.393Z,12.50
2019-05-20T19:12:52.497Z,12.40
2019-05-20T19:15:20.601Z,12.40
2019-05-20T19:17:48.681Z,12.40
2019-05-20T19:20:16.811Z,12.40
2019-05-20T19:22:44.891Z,12.40
2019-05-20T19:25:12.945Z,12.40
2019-05-20T19:27:40.985Z,12.50
2019-05-20T19:30:09.142Z,12.50
2019-05-20T19:32:37.291Z,12.40
2019-05-20T19:35:05.439Z,12.40
2019-05-20T19:37:33.498Z,12.40
2019-05-20T19:40:02.826Z,12.50
2019-05-20T19:42:30.781Z,12.50
2019-05-20T19:44:58.955Z,12.50
2019-05-20T19:47:27.013Z,12.50
2019-05-20T19:49:55.065Z,12.50
2019-05-20T19:52:23.885Z,12.50
2019-05-20T19:54:51.956Z,12.50
2019-05-20T19:57:20.040Z,12.40
2019-05-20T19:59:48.189Z,12.40
2019-05-20T20:02:19.120Z,12.50
2019-05-20T20:04:48.037Z,12.50
2019-05-20T20:07:16.817Z,12.40
2019-05-20T20:09:44.881Z,12.40
2019-05-20T20:12:12.960Z,12.40
2019-05-20T20:14:41.027Z,12.30
2019-05-20T20:17:09.111Z,12.30
2019-05-20T20:19:37.156Z,12.30
2019-05-20T20:22:05.245Z,12.30
2019-05-20T20:24:33.329Z,12.30
2019-05-20T20:27:01.378Z,12.30
2019-05-20T20:29:29.425Z,12.30
2019-05-20T20:31:58.335Z,12.30
2019-05-20T20:34:26.417Z,12.30
2019-05-20T20:36:54.470Z,12.30
2019-05-20T20:39:22.561Z,12.30
2019-05-20T20:41:51.425Z,12.30
2019-05-20T20:44:19.501Z,12.30
2019-05-20T20:46:48.391Z,12.20
2019-05-20T20:49:16.468Z,12.20
2019-05-20T20:51:45.349Z,12.20
2019-05-20T20:54:13.421Z,12.20
2019-05-20T20:56:42.217Z,12.20
2019-05-20T20:59:10.266Z,12.10
2019-05-20T21:01:39.077Z,12.20
2019-05-20T21:04:07.124Z,12.10
2019-05-20T21:06:35.236Z,12.10
2019-05-20T21:09:03.269Z,12.10
2019-05-20T21:11:32.092Z,12.10
2019-05-20T21:14:00.137Z,12.10
2019-05-20T21:16:28.211Z,12.20
2019-05-20T21:18:56.270Z,12.20
2019-05-20T21:21:24.346Z,12.20
2019-05-20T21:23:52.413Z,12.20
2019-05-20T21:26:21.222Z,12.10
2019-05-20T21:28:49.278Z,12.10
2019-05-20T21:31:17.351Z,12.20
2019-05-20T21:33:45.418Z,12.10
2019-05-20T21:36:13.475Z,12.10
2019-05-20T21:38:42.289Z,12.20
2019-05-20T21:41:10.449Z,12.20
2019-05-20T21:43:38.570Z,12.10
2019-05-20T21:46:06.612Z,12.10
2019-05-20T21:48:34.670Z,12.00
2019-05-20T21:51:02.730Z,12.00
2019-05-20T21:53:30.780Z,12.10
2019-05-20T21:55:59.589Z,12.10
2019-05-20T21:58:27.667Z,12.10
2019-05-20T22:00:55.722Z,12.10
2019-05-20T22:03:25.354Z,12.10
2019-05-20T22:05:52.715Z,12.10
2019-05-20T22:08:20.782Z,12.10
2019-05-20T22:10:48.850Z,12.10
2019-05-20T22:13:16.897Z,12.10
2019-05-20T22:15:44.977Z,12.10
2019-05-20T22:18:13.059Z,12.10
2019-05-20T22:20:41.094Z,12.10
2019-05-20T22:23:28.834Z,12.10
2019-05-20T22:25:57.645Z,12.20
2019-05-20T22:28:26.543Z,12.10
2019-05-20T22:30:54.597Z,12.10
2019-05-20T22:33:22.645Z,12.10
2019-05-20T22:35:51.548Z,12.10
2019-05-20T22:38:19.629Z,12.10
2019-05-20T22:40:47.689Z,12.10
2019-05-20T22:43:15.786Z,12.10
2019-05-20T22:45:44.965Z,12.00
2019-05-20T22:48:13.029Z,12.00
2019-05-20T22:50:41.109Z,12.00
2019-05-20T22:53:09.936Z,12.00
2019-05-20T22:55:37.993Z,12.00
2019-05-20T22:58:06.057Z,12.00
2019-05-20T23:00:34.203Z,12.00
2019-05-20T23:03:02.284Z,12.00
2019-05-20T23:05:30.371Z,12.00
2019-05-20T23:07:58.415Z,12.00
2019-05-20T23:10:26.522Z,12.00
2019-05-20T23:12:54.581Z,11.90
2019-05-20T23:15:22.617Z,11.90
2019-05-20T23:17:50.661Z,11.80
2019-05-20T23:20:18.812Z,11.80
2019-05-20T23:22:46.867Z,11.80
2019-05-20T23:25:14.908Z,11.80
2019-05-20T23:27:42.987Z,11.80
2019-05-20T23:30:11.065Z,11.80
2019-05-20T23:32:39.118Z,11.80
2019-05-20T23:35:07.893Z,11.80
2019-05-20T23:37:35.969Z,11.70
2019-05-20T23:40:04.776Z,11.70
2019-05-20T23:42:32.817Z,11.70
2019-05-20T23:45:01.634Z,11.80
2019-05-20T23:47:29.705Z,11.80
2019-05-20T23:49:57.773Z,11.80
2019-05-20T23:52:26.551Z,11.80
2019-05-20T23:54:54.597Z,11.70
2019-05-20T23:57:23.544Z,11.70
2019-05-20T23:59:51.580Z,11.70
